createdAt,value
2022-09-30T00:00:26.629Z,34.80
2022-09-30T00:02:56.791Z,36.27
2022-09-30T00:09:48.305Z,39.17
2022-09-30T00:12:17.812Z,38.93
2022-09-30T00:15:11.556Z,39.80
2022-09-30T00:18:29.241Z,39.17
2022-09-30T00:20:58.148Z,40.77
2022-09-30T00:23:27.332Z,40.57
2022-09-30T00:26:01.976Z,40.87
2022-09-30T00:29:07.940Z,39.47
2022-09-30T00:31:53.242Z,39.57
2022-09-30T00:34:23.552Z,40.20
2022-09-30T00:36:56.628Z,40.63
2022-09-30T00:42:27.262Z,39.97
2022-09-30T00:44:58.542Z,40.90
2022-09-30T00:47:53.319Z,40.07
2022-09-30T00:51:00.618Z,39.63
2022-09-30T00:53:37.962Z,40.20
2022-09-30T00:56:12.203Z,39.77
2022-09-30T00:58:49.105Z,40.73
2022-09-30T01:01:45.738Z,41.17
2022-09-30T01:08:11.631Z,39.57
2022-09-30T01:11:30.487Z,39.90
2022-09-30T01:17:38.885Z,38.07
2022-09-30T01:21:09.694Z,38.10
2022-09-30T01:24:39.000Z,38.57
2022-09-30T01:28:03.616Z,36.87
2022-09-30T01:38:34.191Z,36.00
2022-09-30T01:45:34.006Z,37.23
2022-09-30T01:48:34.848Z,36.40
2022-09-30T01:51:32.044Z,36.07
2022-09-30T01:54:08.700Z,35.73
2022-09-30T01:56:45.911Z,35.93
2022-09-30T01:59:20.021Z,36.17
2022-09-30T02:01:53.262Z,35.47
2022-09-30T02:05:12.069Z,35.40
2022-09-30T02:08:05.485Z,35.80
2022-09-30T02:10:38.416Z,34.80
2022-09-30T02:13:14.729Z,34.87
2022-09-30T02:15:59.165Z,33.90
2022-09-30T02:18:32.591Z,33.47
2022-09-30T02:21:06.666Z,33.83
2022-09-30T02:23:38.057Z,35.33
2022-09-30T02:26:16.432Z,34.30
2022-09-30T02:28:51.789Z,32.37
2022-09-30T02:31:27.067Z,32.93
2022-09-30T02:34:09.917Z,32.20
2022-09-30T02:36:45.503Z,32.57
2022-09-30T02:39:36.189Z,32.53
2022-09-30T02:42:21.921Z,31.43
2022-09-30T02:44:58.868Z,32.63
2022-09-30T02:47:32.326Z,32.83
2022-09-30T02:50:11.038Z,31.50
2022-09-30T02:52:51.142Z,31.20
2022-09-30T02:56:28.239Z,32.10
2022-09-30T02:59:00.290Z,31.20
2022-09-30T03:01:29.188Z,32.10
2022-09-30T03:04:04.607Z,32.03
2022-09-30T03:06:35.887Z,33.20
2022-09-30T03:09:06.155Z,30.33
2022-09-30T03:11:38.741Z,30.07
2022-09-30T03:14:25.080Z,30.67
2022-09-30T03:17:28.288Z,30.63
2022-09-30T03:24:29.019Z,31.20
2022-09-30T03:27:08.652Z,31.07
2022-09-30T03:29:46.503Z,28.23
2022-09-30T03:32:29.286Z,30.53
2022-09-30T03:35:13.272Z,30.53
2022-09-30T03:37:49.650Z,31.10
2022-09-30T03:40:29.124Z,31.60
2022-09-30T03:43:05.187Z,32.80
2022-09-30T03:46:06.654Z,33.83
2022-09-30T03:48:41.046Z,33.37
2022-09-30T03:51:18.192Z,32.53
2022-09-30T03:53:47.587Z,33.00
2022-09-30T03:56:17.199Z,32.97
2022-09-30T03:58:46.371Z,32.20
2022-09-30T04:01:21.529Z,32.73
2022-09-30T04:03:52.417Z,31.70
2022-09-30T04:06:28.221Z,30.90
2022-09-30T04:08:57.729Z,30.73
2022-09-30T04:11:30.726Z,30.73
2022-09-30T04:13:58.767Z,32.83
2022-09-30T04:16:27.269Z,31.50
2022-09-30T04:18:57.766Z,32.43
2022-09-30T04:21:28.716Z,31.60
2022-09-30T04:23:57.544Z,30.13
2022-09-30T04:26:26.989Z,30.20
2022-09-30T04:28:59.100Z,29.17
2022-09-30T04:31:27.286Z,31.20
2022-09-30T04:33:57.022Z,29.93
2022-09-30T04:36:26.552Z,31.90
2022-09-30T04:38:54.894Z,29.80
2022-09-30T04:41:23.026Z,29.90
2022-09-30T04:43:53.448Z,30.27
2022-09-30T04:46:22.659Z,29.73
2022-09-30T04:49:08.504Z,29.87
2022-09-30T04:51:38.495Z,29.97
2022-09-30T04:54:09.314Z,31.27
2022-09-30T04:56:37.322Z,31.13
2022-09-30T04:59:10.532Z,29.57
2022-09-30T05:01:39.351Z,31.17
2022-09-30T05:04:08.267Z,29.67
2022-09-30T05:06:37.449Z,29.57
2022-09-30T05:09:05.576Z,28.43
2022-09-30T05:11:37.257Z,28.03
2022-09-30T05:14:11.143Z,29.37
2022-09-30T05:16:40.381Z,33.13
2022-09-30T05:19:08.510Z,29.43
2022-09-30T05:21:37.410Z,29.70
2022-09-30T05:24:06.175Z,28.23
2022-09-30T05:26:35.208Z,27.93
2022-09-30T05:29:04.191Z,27.63
2022-09-30T05:31:34.344Z,27.13
2022-09-30T05:34:02.573Z,27.67
2022-09-30T05:36:31.292Z,26.50
2022-09-30T05:38:59.810Z,26.43
2022-09-30T05:41:28.255Z,26.73
2022-09-30T05:43:56.212Z,28.23
2022-09-30T05:46:30.030Z,27.63
2022-09-30T05:48:59.352Z,27.93
2022-09-30T05:51:31.241Z,28.10
2022-09-30T05:53:59.235Z,27.70
2022-09-30T05:56:29.589Z,27.47
2022-09-30T05:58:57.729Z,28.47
2022-09-30T06:01:25.847Z,28.30
2022-09-30T06:03:54.372Z,27.80
2022-09-30T06:06:24.295Z,28.33
2022-09-30T06:08:56.416Z,28.30
2022-09-30T06:11:25.046Z,28.67
2022-09-30T06:14:20.077Z,27.47
2022-09-30T06:16:51.001Z,28.40
2022-09-30T06:19:21.713Z,28.03
2022-09-30T06:21:51.929Z,28.67
2022-09-30T06:24:23.359Z,28.27
2022-09-30T06:26:52.286Z,28.10
2022-09-30T06:29:20.592Z,30.77
2022-09-30T06:31:52.453Z,29.10
2022-09-30T06:34:20.543Z,30.33
2022-09-30T06:37:20.917Z,31.30
2022-09-30T06:39:55.227Z,29.70
2022-09-30T06:42:25.131Z,30.97
2022-09-30T06:44:59.475Z,30.53
2022-09-30T06:47:28.305Z,29.97
2022-09-30T06:50:02.275Z,29.77
2022-09-30T06:52:31.656Z,29.47
2022-09-30T06:54:59.776Z,28.33
2022-09-30T06:57:28.233Z,28.50
2022-09-30T07:00:00.834Z,28.97
2022-09-30T07:03:06.641Z,29.93
2022-09-30T07:05:38.120Z,29.33
2022-09-30T07:08:10.667Z,29.70
2022-09-30T07:10:39.719Z,29.30
2022-09-30T07:13:08.340Z,29.90
2022-09-30T07:15:36.405Z,31.50
2022-09-30T07:18:05.730Z,29.87
2022-09-30T07:20:34.860Z,29.40
2022-09-30T07:23:03.552Z,28.93
2022-09-30T07:25:32.931Z,28.87
2022-09-30T07:28:06.626Z,27.40
2022-09-30T07:30:39.971Z,28.57
2022-09-30T07:33:09.225Z,29.03
2022-09-30T07:35:38.082Z,27.93
2022-09-30T07:38:07.423Z,26.70
2022-09-30T07:40:36.909Z,27.00
2022-09-30T07:44:07.047Z,25.33
2022-09-30T07:46:38.924Z,26.17
2022-09-30T07:49:10.756Z,26.20
2022-09-30T07:51:44.015Z,25.63
2022-09-30T07:54:15.366Z,25.37
2022-09-30T07:59:48.239Z,25.13
2022-09-30T08:02:21.370Z,24.73
2022-09-30T08:04:51.630Z,24.30
2022-09-30T08:07:21.308Z,24.13
2022-09-30T08:09:53.511Z,23.87
2022-09-30T08:12:23.322Z,24.53
2022-09-30T08:14:52.304Z,24.43
2022-09-30T08:17:21.283Z,25.53
2022-09-30T08:19:50.174Z,24.77
2022-09-30T08:22:26.292Z,25.40
2022-09-30T08:24:55.346Z,23.93
2022-09-30T08:27:59.116Z,22.77
2022-09-30T08:30:28.569Z,23.73
2022-09-30T08:33:01.392Z,23.37
2022-09-30T08:35:33.315Z,25.23
2022-09-30T08:38:01.367Z,24.10
2022-09-30T08:40:34.580Z,24.03
2022-09-30T08:43:26.723Z,24.23
2022-09-30T08:46:05.510Z,24.13
2022-09-30T08:48:50.570Z,22.90
2022-09-30T08:51:31.243Z,23.03
2022-09-30T08:54:03.753Z,23.00
2022-09-30T08:56:34.294Z,26.23
2022-09-30T08:59:08.146Z,23.40
2022-09-30T09:01:42.430Z,23.03
2022-09-30T09:04:10.861Z,21.97
2022-09-30T09:06:55.223Z,22.60
2022-09-30T09:09:40.576Z,22.13
2022-09-30T09:12:23.409Z,21.23
2022-09-30T09:15:11.362Z,21.47
2022-09-30T09:18:22.170Z,21.07
2022-09-30T09:20:55.483Z,21.67
2022-09-30T09:23:23.838Z,21.90
2022-09-30T09:25:54.763Z,21.23
2022-09-30T09:28:37.314Z,21.67
2022-09-30T09:31:07.326Z,20.40
2022-09-30T09:33:39.523Z,21.60
2022-09-30T09:36:27.388Z,20.47
2022-09-30T09:39:12.276Z,20.90
2022-09-30T09:41:46.458Z,20.70
2022-09-30T09:44:21.274Z,49.13
2022-09-30T09:46:56.384Z,23.63
2022-09-30T09:49:41.613Z,21.60
2022-09-30T09:52:40.103Z,19.00
2022-09-30T09:55:09.555Z,19.00
2022-09-30T09:57:43.359Z,19.43
2022-09-30T10:00:43.773Z,18.53
2022-09-30T10:03:20.829Z,18.20
2022-09-30T10:06:12.938Z,18.40
2022-09-30T10:08:56.204Z,16.27
2022-09-30T10:11:27.977Z,16.10
2022-09-30T10:14:23.812Z,16.87
2022-09-30T10:16:59.335Z,15.93
2022-09-30T10:19:33.989Z,16.43
2022-09-30T10:22:34.039Z,15.47
2022-09-30T10:25:22.418Z,14.87
2022-09-30T10:27:54.733Z,13.87
2022-09-30T10:38:22.781Z,13.63
2022-09-30T10:40:51.975Z,13.57
2022-09-30T10:43:26.276Z,12.47
2022-09-30T10:46:20.856Z,12.47
2022-09-30T10:48:51.152Z,13.73
2022-09-30T10:51:36.377Z,13.07
2022-09-30T10:54:07.376Z,11.73
2022-09-30T10:56:44.257Z,11.00
2022-09-30T10:59:26.734Z,11.10
2022-09-30T11:02:06.167Z,10.17
2022-09-30T11:04:40.137Z,9.90
2022-09-30T11:07:18.169Z,9.50
2022-09-30T11:09:54.365Z,9.40
2022-09-30T11:12:33.698Z,9.17
2022-09-30T11:15:09.246Z,9.10
2022-09-30T11:17:44.878Z,9.47
2022-09-30T11:20:21.086Z,8.70
2022-09-30T11:23:00.618Z,8.17
2022-09-30T11:25:41.041Z,8.00
2022-09-30T11:28:37.264Z,7.13
2022-09-30T11:31:17.421Z,7.93
2022-09-30T11:34:00.431Z,7.87
2022-09-30T11:36:42.198Z,7.23
2022-09-30T11:39:36.997Z,7.27
2022-09-30T11:42:10.954Z,7.20
2022-09-30T11:44:44.934Z,7.40
2022-09-30T11:47:37.790Z,7.10
2022-09-30T11:50:19.406Z,7.13
2022-09-30T11:52:56.948Z,7.20
2022-09-30T11:56:03.043Z,7.60
2022-09-30T11:58:41.630Z,6.97
2022-09-30T12:01:33.731Z,6.23
2022-09-30T12:04:06.620Z,6.37
2022-09-30T12:06:37.434Z,6.00
2022-09-30T12:09:18.301Z,5.43
2022-09-30T12:11:53.400Z,5.37
2022-09-30T12:14:28.304Z,5.03
2022-09-30T12:16:58.419Z,4.67
2022-09-30T12:19:32.045Z,4.77
2022-09-30T12:22:06.906Z,5.17
2022-09-30T12:24:38.603Z,5.53
2022-09-30T12:27:14.160Z,5.60
2022-09-30T12:30:09.015Z,5.40
2022-09-30T12:33:16.650Z,5.80
2022-09-30T12:36:10.839Z,5.30
2022-09-30T12:39:16.321Z,5.67
2022-09-30T12:42:02.038Z,5.23
2022-09-30T12:45:13.286Z,5.17
2022-09-30T12:47:48.373Z,5.63
2022-09-30T12:50:20.709Z,5.67
2022-09-30T12:52:52.301Z,4.50
2022-09-30T12:55:28.151Z,4.30
2022-09-30T12:58:00.256Z,3.70
2022-09-30T13:00:31.790Z,3.83
2022-09-30T13:03:11.112Z,4.30
2022-09-30T13:05:56.307Z,4.17
2022-09-30T13:08:44.118Z,4.43
2022-09-30T13:11:37.455Z,4.20
2022-09-30T13:14:32.233Z,3.73
2022-09-30T13:17:24.430Z,4.63
2022-09-30T13:19:56.007Z,4.40
2022-09-30T13:22:44.286Z,4.70
2022-09-30T13:25:15.334Z,4.43
2022-09-30T13:27:45.500Z,4.43
2022-09-30T13:30:37.876Z,4.43
2022-09-30T13:33:33.213Z,4.33
2022-09-30T13:36:17.571Z,4.03
2022-09-30T13:38:45.677Z,4.30
2022-09-30T13:41:22.252Z,4.10
2022-09-30T13:44:03.632Z,4.43
2022-09-30T13:46:36.757Z,4.20
2022-09-30T13:49:11.376Z,4.43
2022-09-30T13:51:41.998Z,4.27
2022-09-30T13:54:30.361Z,4.23
2022-09-30T13:57:02.523Z,4.30
2022-09-30T13:59:48.573Z,4.37
2022-09-30T14:02:38.455Z,4.30
2022-09-30T14:05:42.929Z,4.80
2022-09-30T14:08:41.053Z,3.90
2022-09-30T14:11:24.514Z,4.30
2022-09-30T14:14:03.446Z,4.53
2022-09-30T14:16:50.476Z,4.60
2022-09-30T14:19:46.368Z,3.90
2022-09-30T14:22:16.487Z,4.13
2022-09-30T14:24:52.733Z,4.00
2022-09-30T14:27:38.221Z,4.60
2022-09-30T14:30:11.695Z,4.50
2022-09-30T14:32:47.488Z,5.00
2022-09-30T14:35:19.500Z,4.80
2022-09-30T14:37:51.515Z,10.10
2022-09-30T14:40:26.701Z,6.70
2022-09-30T14:42:56.391Z,5.30
2022-09-30T14:45:28.881Z,5.23
2022-09-30T14:48:01.746Z,5.13
2022-09-30T14:50:35.804Z,5.10
2022-09-30T14:53:04.424Z,4.80
2022-09-30T14:55:35.449Z,5.10
2022-09-30T14:58:28.461Z,5.13
2022-09-30T15:01:08.628Z,4.53
2022-09-30T15:03:39.607Z,4.50
2022-09-30T15:06:17.720Z,5.00
2022-09-30T15:08:46.453Z,5.30
2022-09-30T15:11:21.835Z,5.20
2022-09-30T15:13:53.762Z,4.50
2022-09-30T15:16:26.084Z,5.13
2022-09-30T15:18:55.388Z,5.70
2022-09-30T15:21:25.465Z,5.43
2022-09-30T15:23:59.959Z,5.27
2022-09-30T15:26:34.867Z,5.53
2022-09-30T15:29:09.633Z,6.00
2022-09-30T15:31:45.657Z,6.13
2022-09-30T15:34:23.237Z,5.73
2022-09-30T15:36:59.787Z,6.27
2022-09-30T15:39:52.411Z,6.20
2022-09-30T15:42:36.171Z,5.63
2022-09-30T15:45:15.535Z,5.80
2022-09-30T15:47:59.417Z,5.93
2022-09-30T15:50:38.473Z,6.10
2022-09-30T15:53:21.270Z,6.13
2022-09-30T15:55:52.421Z,6.60
2022-09-30T15:58:37.838Z,7.10
2022-09-30T16:01:24.870Z,6.13
2022-09-30T16:03:55.735Z,6.90
2022-09-30T16:06:33.338Z,6.73
2022-09-30T16:09:04.289Z,7.17
2022-09-30T16:11:36.697Z,6.60
2022-09-30T16:14:17.607Z,6.80
2022-09-30T16:16:51.568Z,7.03
2022-09-30T16:19:20.807Z,7.00
2022-09-30T16:21:51.666Z,7.13
2022-09-30T16:24:48.019Z,7.90
2022-09-30T16:27:38.669Z,8.00
2022-09-30T16:30:08.990Z,7.10
2022-09-30T16:32:40.581Z,6.77
2022-09-30T16:35:18.936Z,7.50
2022-09-30T16:37:48.768Z,6.60
2022-09-30T16:40:20.975Z,7.10
2022-09-30T16:42:49.107Z,7.13
2022-09-30T16:45:19.033Z,6.90
2022-09-30T16:47:47.262Z,6.77
2022-09-30T16:50:34.564Z,7.00
2022-09-30T16:53:06.257Z,6.53
2022-09-30T16:55:34.558Z,6.70
2022-09-30T16:58:05.446Z,8.63
2022-09-30T17:00:35.644Z,9.47
2022-09-30T17:03:03.744Z,10.63
2022-09-30T17:05:32.948Z,8.80
2022-09-30T17:08:01.538Z,9.43
2022-09-30T17:10:31.553Z,9.20
2022-09-30T17:13:01.072Z,8.80
2022-09-30T17:15:30.466Z,11.40
2022-09-30T17:18:00.917Z,15.13
2022-09-30T17:20:28.981Z,14.23
2022-09-30T17:22:57.051Z,9.30
2022-09-30T17:25:25.348Z,8.53
2022-09-30T17:27:57.005Z,8.97
2022-09-30T17:30:25.242Z,9.00
2022-09-30T17:32:54.503Z,9.13
2022-09-30T17:35:25.143Z,9.30
2022-09-30T17:37:53.188Z,9.50
2022-09-30T17:40:39.458Z,9.67
2022-09-30T17:43:08.599Z,10.13
2022-09-30T17:45:37.879Z,11.07
2022-09-30T17:48:08.955Z,11.03
2022-09-30T17:50:44.315Z,13.67
2022-09-30T17:53:14.166Z,15.43
2022-09-30T17:55:43.611Z,15.10
2022-09-30T17:58:12.423Z,12.17
2022-09-30T18:00:40.574Z,12.30
2022-09-30T18:03:12.310Z,13.07
2022-09-30T18:05:45.589Z,11.50
2022-09-30T18:08:14.063Z,12.77
2022-09-30T18:10:45.729Z,13.57
2022-09-30T18:13:13.689Z,11.83
2022-09-30T18:15:41.668Z,11.13
2022-09-30T18:18:11.016Z,12.57
2022-09-30T18:20:49.731Z,11.93
2022-09-30T18:23:19.452Z,12.90
2022-09-30T18:25:49.715Z,13.70
2022-09-30T18:28:18.581Z,19.33
2022-09-30T18:30:46.735Z,15.60
2022-09-30T18:33:21.459Z,14.97
2022-09-30T18:35:51.225Z,16.37
2022-09-30T18:38:19.689Z,15.70
2022-09-30T18:40:49.944Z,14.80
2022-09-30T18:43:18.044Z,14.90
2022-09-30T18:45:54.487Z,15.00
2022-09-30T18:48:22.920Z,14.70
2022-09-30T18:50:52.520Z,14.40
2022-09-30T18:53:21.364Z,14.53
2022-09-30T18:55:51.897Z,13.83
2022-09-30T18:58:19.891Z,15.17
2022-09-30T19:00:48.196Z,14.53
2022-09-30T19:03:17.504Z,14.90
2022-09-30T19:05:45.519Z,17.47
2022-09-30T19:08:14.935Z,15.90
2022-09-30T19:10:43.387Z,14.63
2022-09-30T19:13:14.320Z,14.13
2022-09-30T19:15:42.420Z,13.63
2022-09-30T19:18:11.818Z,12.90
2022-09-30T19:20:40.744Z,14.10
2022-09-30T19:23:11.639Z,15.13
2022-09-30T19:25:41.164Z,16.00
2022-09-30T19:28:09.215Z,15.67
2022-09-30T19:30:42.040Z,14.57
2022-09-30T19:33:10.235Z,17.63
2022-09-30T19:35:40.988Z,15.63
2022-09-30T19:38:10.884Z,15.30
2022-09-30T19:40:40.646Z,15.57
2022-09-30T19:43:08.666Z,15.43
2022-09-30T19:45:36.810Z,17.17
2022-09-30T19:48:04.909Z,17.87
2022-09-30T19:50:37.188Z,16.03
2022-09-30T19:53:05.105Z,15.07
2022-09-30T19:55:44.099Z,15.77
2022-09-30T19:58:17.235Z,14.87
2022-09-30T20:00:47.083Z,14.63
2022-09-30T20:03:15.357Z,14.30
2022-09-30T20:05:47.077Z,14.50
2022-09-30T20:08:15.181Z,14.27
2022-09-30T20:10:43.149Z,16.47
2022-09-30T20:13:11.619Z,21.30
2022-09-30T20:15:52.228Z,16.53
2022-09-30T20:18:20.649Z,15.40
2022-09-30T20:20:49.576Z,15.20
2022-09-30T20:23:23.424Z,15.40
2022-09-30T20:25:52.860Z,15.43
2022-09-30T20:28:22.740Z,17.70
2022-09-30T20:30:52.254Z,18.80
2022-09-30T20:33:24.547Z,19.93
2022-09-30T20:35:52.618Z,20.57
2022-09-30T20:38:24.592Z,21.27
2022-09-30T20:40:56.135Z,23.70
2022-09-30T20:43:30.125Z,22.10
2022-09-30T20:46:01.813Z,22.13
2022-09-30T20:48:33.723Z,22.73
2022-09-30T20:51:02.334Z,22.90
2022-09-30T20:53:30.337Z,23.33
2022-09-30T20:56:02.620Z,23.80
2022-09-30T20:58:34.908Z,23.83
2022-09-30T21:01:05.573Z,24.27
2022-09-30T21:03:36.335Z,24.17
2022-09-30T21:06:06.095Z,24.30
2022-09-30T21:08:38.734Z,22.40
2022-09-30T21:11:07.454Z,24.13
2022-09-30T21:13:38.276Z,22.13
2022-09-30T21:16:10.824Z,23.03
2022-09-30T21:18:39.172Z,21.20
2022-09-30T21:21:07.767Z,21.30
2022-09-30T21:23:37.176Z,21.10
2022-09-30T21:26:07.233Z,21.40
2022-09-30T21:28:36.374Z,22.60
2022-09-30T21:31:09.886Z,22.67
2022-09-30T21:33:38.048Z,21.93
2022-09-30T21:36:07.663Z,22.20
2022-09-30T21:38:35.839Z,22.47
2022-09-30T21:41:11.334Z,21.40
2022-09-30T21:43:39.619Z,21.20
2022-09-30T21:46:10.550Z,21.33
2022-09-30T21:48:44.419Z,21.43
2022-09-30T21:51:14.278Z,20.67
2022-09-30T21:53:43.445Z,25.07
2022-09-30T21:56:12.781Z,22.40
2022-09-30T21:58:44.672Z,22.93
2022-09-30T22:01:14.111Z,24.30
2022-09-30T22:03:42.248Z,24.27
2022-09-30T22:06:12.713Z,22.30
2022-09-30T22:08:41.295Z,21.33
2022-09-30T22:11:14.381Z,21.60
2022-09-30T22:13:44.863Z,21.83
2022-09-30T22:16:16.299Z,21.23
2022-09-30T22:18:48.123Z,20.73
2022-09-30T22:21:16.506Z,19.93
2022-09-30T22:23:47.730Z,21.07
2022-09-30T22:26:18.933Z,21.37
2022-09-30T22:28:48.951Z,21.47
2022-09-30T22:31:20.182Z,22.17
2022-09-30T22:34:05.353Z,23.77
2022-09-30T22:36:51.729Z,22.60
2022-09-30T22:39:20.756Z,22.20
2022-09-30T22:41:49.520Z,23.67
2022-09-30T22:44:17.872Z,22.47
2022-09-30T22:46:47.747Z,22.10
2022-09-30T22:49:15.872Z,23.90
2022-09-30T22:51:44.098Z,22.67
2022-09-30T22:54:12.295Z,23.03
2022-09-30T22:56:41.750Z,23.87
2022-09-30T22:59:09.751Z,24.13
2022-09-30T23:01:37.971Z,26.20
2022-09-30T23:04:07.982Z,24.57
2022-09-30T23:06:36.534Z,25.60
2022-09-30T23:09:09.429Z,26.53
2022-09-30T23:11:37.486Z,26.67
2022-09-30T23:14:05.713Z,27.53
2022-09-30T23:16:33.879Z,26.23
2022-09-30T23:19:02.645Z,25.83
2022-09-30T23:21:33.710Z,32.47
2022-09-30T23:24:04.915Z,27.30
2022-09-30T23:26:34.290Z,22.90
2022-09-30T23:29:05.712Z,21.03
2022-09-30T23:31:35.072Z,17.80
2022-09-30T23:34:05.727Z,17.90
2022-09-30T23:36:37.787Z,18.37
2022-09-30T23:39:09.370Z,18.93
2022-09-30T23:41:43.594Z,18.90
2022-09-30T23:44:11.549Z,19.80
2022-09-30T23:47:01.610Z,19.50
2022-09-30T23:49:35.321Z,19.93
2022-09-30T23:52:09.243Z,19.07
2022-09-30T23:54:41.880Z,19.73
2022-09-30T23:57:10.852Z,20.77
2022-09-30T23:59:39.614Z,18.73
